createdAt,value
2023-04-08T00:01:46.093Z,9.40
2023-04-08T00:04:14.509Z,9.07
2023-04-08T00:06:41.592Z,7.63
2023-04-08T00:09:08.255Z,7.67
2023-04-08T00:11:34.965Z,8.33
2023-04-08T00:14:04.008Z,6.90
2023-04-08T00:16:30.869Z,7.03
2023-04-08T00:18:57.588Z,9.40
2023-04-08T00:21:24.517Z,12.03
2023-04-08T00:23:51.128Z,8.67
2023-04-08T00:26:17.774Z,7.93
2023-04-08T00:28:45.171Z,10.33
2023-04-08T00:31:11.925Z,8.33
2023-04-08T00:33:38.712Z,10.00
2023-04-08T00:36:05.589Z,11.20
2023-04-08T00:38:32.365Z,10.47
2023-04-08T00:40:59.139Z,10.00
2023-04-08T00:43:26.060Z,11.20
2023-04-08T00:45:52.773Z,12.33
2023-04-08T00:48:19.872Z,11.50
2023-04-08T00:50:47.365Z,10.80
2023-04-08T00:53:18.912Z,12.50
2023-04-08T00:55:45.845Z,9.83
2023-04-08T00:58:14.019Z,10.90
2023-04-08T01:00:44.416Z,9.80
2023-04-08T01:03:24.676Z,9.23
2023-04-08T01:05:54.542Z,12.60
2023-04-08T01:08:22.211Z,12.83
2023-04-08T01:10:54.195Z,10.90
2023-04-08T01:13:24.437Z,13.23
2023-04-08T01:15:51.271Z,10.63
2023-04-08T01:18:18.690Z,10.40
2023-04-08T01:20:45.908Z,20.80
2023-04-08T01:23:38.300Z,13.93
2023-04-08T01:26:05.393Z,12.20
2023-04-08T01:28:33.150Z,13.60
2023-04-08T01:31:01.098Z,13.40
2023-04-08T01:33:28.954Z,11.23
2023-04-08T01:35:56.956Z,11.40
2023-04-08T01:38:25.957Z,10.90
2023-04-08T01:40:53.661Z,12.20
2023-04-08T01:43:20.635Z,14.53
2023-04-08T01:45:48.373Z,13.33
2023-04-08T01:48:15.877Z,13.93
2023-04-08T01:50:43.650Z,13.20
2023-04-08T01:53:12.939Z,11.77
2023-04-08T01:55:41.054Z,13.40
2023-04-08T01:58:09.413Z,16.73
2023-04-08T02:00:36.970Z,13.80
2023-04-08T02:03:08.154Z,16.47
2023-04-08T02:05:35.110Z,15.40
2023-04-08T02:08:02.825Z,12.67
2023-04-08T02:10:29.540Z,14.70
2023-04-08T02:12:56.996Z,13.27
2023-04-08T02:15:25.282Z,14.20
2023-04-08T02:17:55.848Z,17.87
2023-04-08T02:20:24.531Z,11.73
2023-04-08T02:23:08.362Z,14.70
2023-04-08T02:25:39.015Z,16.87
2023-04-08T02:28:08.276Z,13.47
2023-04-08T02:30:37.621Z,13.33
2023-04-08T02:33:05.788Z,10.77
2023-04-08T02:35:32.647Z,13.23
2023-04-08T02:37:59.609Z,13.00
2023-04-08T02:40:35.550Z,11.03
2023-04-08T02:43:03.850Z,9.23
2023-04-08T02:45:33.132Z,8.87
2023-04-08T02:48:01.547Z,10.30
2023-04-08T02:50:28.388Z,8.60
2023-04-08T02:52:56.007Z,10.10
2023-04-08T02:55:22.782Z,10.20
2023-04-08T02:57:49.571Z,11.10
2023-04-08T03:00:17.420Z,9.23
2023-04-08T03:02:44.246Z,12.77
2023-04-08T03:05:11.528Z,11.00
2023-04-08T03:07:38.560Z,9.20
2023-04-08T03:10:06.264Z,8.57
2023-04-08T03:12:33.135Z,9.43
2023-04-08T03:15:00.955Z,9.70
2023-04-08T03:17:27.843Z,12.57
2023-04-08T03:19:54.685Z,9.47
2023-04-08T03:22:21.391Z,8.70
2023-04-08T03:24:48.158Z,9.03
2023-04-08T03:27:14.784Z,9.97
2023-04-08T03:29:41.560Z,12.80
2023-04-08T03:32:08.263Z,10.70
2023-04-08T03:34:35.620Z,11.40
2023-04-08T03:37:02.530Z,10.00
2023-04-08T03:39:29.236Z,10.77
2023-04-08T03:41:55.890Z,15.60
2023-04-08T03:44:22.752Z,9.43
2023-04-08T03:46:49.377Z,10.93
2023-04-08T03:49:16.023Z,10.70
2023-04-08T03:51:42.631Z,10.23
2023-04-08T03:54:09.343Z,11.20
2023-04-08T03:56:35.962Z,11.17
2023-04-08T03:59:02.824Z,10.87
2023-04-08T04:01:30.856Z,12.93
2023-04-08T04:03:57.815Z,11.50
2023-04-08T04:06:24.900Z,10.73
2023-04-08T04:08:53.925Z,13.20
2023-04-08T04:11:21.955Z,11.40
2023-04-08T04:13:49.170Z,11.60
2023-04-08T04:16:15.935Z,16.07
2023-04-08T04:18:42.868Z,12.83
2023-04-08T04:21:09.825Z,10.10
2023-04-08T04:23:36.502Z,12.37
2023-04-08T04:26:08.399Z,11.70
2023-04-08T04:28:34.985Z,10.80
2023-04-08T04:31:01.712Z,11.97
2023-04-08T04:33:28.412Z,13.20
2023-04-08T04:35:55.106Z,11.33
2023-04-08T04:38:21.741Z,14.40
2023-04-08T04:40:48.595Z,14.03
2023-04-08T04:43:15.327Z,13.63
2023-04-08T04:45:42.009Z,14.83
2023-04-08T04:48:08.646Z,16.30
2023-04-08T04:50:35.336Z,12.70
2023-04-08T04:53:01.946Z,14.30
2023-04-08T04:55:28.741Z,15.57
2023-04-08T04:57:55.359Z,13.93
2023-04-08T05:00:21.996Z,12.57
2023-04-08T05:02:48.889Z,13.70
2023-04-08T05:05:16.214Z,12.90
2023-04-08T05:07:42.819Z,15.23
2023-04-08T05:10:11.038Z,15.70
2023-04-08T05:12:38.920Z,11.63
2023-04-08T05:15:06.557Z,11.50
2023-04-08T05:17:33.348Z,14.53
2023-04-08T05:20:00.331Z,15.90
2023-04-08T05:22:27.011Z,15.30
2023-04-08T05:24:53.603Z,14.90
2023-04-08T05:27:21.710Z,14.07
2023-04-08T05:29:48.684Z,17.43
2023-04-08T05:32:16.961Z,14.80
2023-04-08T05:34:44.087Z,13.57
2023-04-08T05:37:11.053Z,15.10
2023-04-08T05:39:37.787Z,18.80
2023-04-08T05:42:04.442Z,17.57
2023-04-08T05:44:31.170Z,15.27
2023-04-08T05:46:58.336Z,15.27
2023-04-08T05:49:25.069Z,15.80
2023-04-08T05:51:51.728Z,15.73
2023-04-08T05:54:21.270Z,13.03
2023-04-08T05:56:48.919Z,17.93
2023-04-08T05:59:15.828Z,15.63
2023-04-08T06:01:42.692Z,18.70
2023-04-08T06:04:09.647Z,18.33
2023-04-08T06:06:39.045Z,16.40
2023-04-08T06:09:05.947Z,19.30
2023-04-08T06:11:32.610Z,15.97
2023-04-08T06:13:59.238Z,18.83
2023-04-08T06:16:25.981Z,17.87
2023-04-08T06:18:53.025Z,18.17
2023-04-08T06:21:19.932Z,17.73
2023-04-08T06:23:46.544Z,21.03
2023-04-08T06:26:13.433Z,17.00
2023-04-08T06:28:40.426Z,17.57
2023-04-08T06:31:07.105Z,17.63
2023-04-08T06:33:36.109Z,18.90
2023-04-08T06:36:04.056Z,23.23
2023-04-08T06:38:31.959Z,21.17
2023-04-08T06:41:08.223Z,22.63
2023-04-08T06:43:35.553Z,26.80
2023-04-08T06:46:02.174Z,23.93
2023-04-08T06:48:30.560Z,25.70
2023-04-08T06:50:58.135Z,28.57
2023-04-08T06:53:25.598Z,27.20
2023-04-08T06:55:52.541Z,24.67
2023-04-08T06:58:19.181Z,28.10
2023-04-08T07:00:45.877Z,31.90
2023-04-08T07:03:12.847Z,25.30
2023-04-08T07:05:39.705Z,26.73
2023-04-08T07:08:06.616Z,27.20
2023-04-08T07:10:34.928Z,27.40
2023-04-08T07:13:01.900Z,28.30
2023-04-08T07:15:28.566Z,26.97
2023-04-08T07:17:58.870Z,27.33
2023-04-08T07:20:26.078Z,24.90
2023-04-08T07:22:52.767Z,30.90
2023-04-08T07:25:19.446Z,24.87
2023-04-08T07:27:46.189Z,23.77
2023-04-08T07:30:12.829Z,26.50
2023-04-08T07:32:39.600Z,24.00
2023-04-08T07:35:06.552Z,26.27
2023-04-08T07:37:33.239Z,26.63
2023-04-08T07:39:59.879Z,24.17
2023-04-08T07:42:27.319Z,24.90
2023-04-08T07:44:54.048Z,24.70
2023-04-08T07:47:21.147Z,23.50
2023-04-08T07:49:48.406Z,26.57
2023-04-08T07:52:15.698Z,25.03
2023-04-08T07:54:42.336Z,26.00
2023-04-08T07:57:08.990Z,26.33
2023-04-08T07:59:36.168Z,25.90
2023-04-08T08:02:03.353Z,23.43
2023-04-08T08:04:30.280Z,23.20
2023-04-08T08:06:57.258Z,28.57
2023-04-08T08:09:23.955Z,23.50
2023-04-08T08:11:50.852Z,25.10
2023-04-08T08:14:17.545Z,21.50
2023-04-08T08:16:44.743Z,24.67
2023-04-08T08:19:12.431Z,24.73
2023-04-08T08:21:39.662Z,24.40
2023-04-08T08:24:07.020Z,24.20
2023-04-08T08:26:37.059Z,25.27
2023-04-08T08:29:08.612Z,24.90
2023-04-08T08:31:35.773Z,28.50
2023-04-08T08:34:02.932Z,24.07
2023-04-08T08:36:29.608Z,26.20
2023-04-08T08:38:56.386Z,27.33
2023-04-08T08:41:25.906Z,25.07
2023-04-08T08:43:52.871Z,24.83
2023-04-08T08:46:19.684Z,25.83
2023-04-08T08:48:46.592Z,25.37
2023-04-08T08:51:14.721Z,27.07
2023-04-08T08:53:45.683Z,26.83
2023-04-08T08:58:42.577Z,25.07
2023-04-08T09:01:35.597Z,27.03
2023-04-08T09:04:17.317Z,24.27
2023-04-08T09:06:46.616Z,25.47
2023-04-08T09:09:13.832Z,25.27
2023-04-08T09:11:42.429Z,24.63
2023-04-08T09:14:22.547Z,26.70
2023-04-08T09:16:52.018Z,26.80
2023-04-08T09:19:21.892Z,24.27
2023-04-08T09:22:05.877Z,25.00
2023-04-08T09:24:32.644Z,28.37
2023-04-08T09:26:59.410Z,24.60
2023-04-08T09:29:32.422Z,25.95
2023-04-08T09:32:01.865Z,28.97
2023-04-08T09:34:29.728Z,24.97
2023-04-08T09:36:56.765Z,22.20
2023-04-08T09:39:24.048Z,24.50
2023-04-08T09:41:53.222Z,23.53
2023-04-08T09:44:22.163Z,25.77
2023-04-08T09:47:01.433Z,23.27
2023-04-08T09:49:50.176Z,24.60
2023-04-08T09:52:35.620Z,24.77
2023-04-08T09:55:06.620Z,30.80
2023-04-08T09:57:56.670Z,26.70
2023-04-08T10:00:31.719Z,28.17
2023-04-08T10:03:01.917Z,26.63
2023-04-08T10:05:29.641Z,33.20
2023-04-08T10:07:56.954Z,25.10
2023-04-08T10:10:24.660Z,27.80
2023-04-08T10:13:00.982Z,28.63
2023-04-08T10:24:08.117Z,24.47
2023-04-08T10:35:17.406Z,22.80
2023-04-08T10:37:44.349Z,27.17
2023-04-08T10:40:20.566Z,26.07
2023-04-08T10:42:48.076Z,24.07
2023-04-08T10:45:18.286Z,23.33
2023-04-08T10:47:46.672Z,31.80
2023-04-08T10:50:14.976Z,22.20
2023-04-08T10:52:52.484Z,27.77
2023-04-08T10:55:26.670Z,24.67
2023-04-08T10:57:54.486Z,23.53
2023-04-08T11:00:36.855Z,25.13
2023-04-08T11:03:05.196Z,22.63
2023-04-08T11:05:32.952Z,23.07
2023-04-08T11:08:00.531Z,25.80
2023-04-08T11:10:28.752Z,25.50
2023-04-08T11:12:56.695Z,20.23
2023-04-08T11:15:38.099Z,21.43
2023-04-08T11:18:07.876Z,24.00
2023-04-08T11:20:40.478Z,22.23
2023-04-08T11:23:23.061Z,22.87
2023-04-08T11:25:50.004Z,21.30
2023-04-08T11:28:16.996Z,23.53
2023-04-08T11:30:44.110Z,21.57
2023-04-08T11:33:13.423Z,23.03
2023-04-08T11:35:44.609Z,25.47
2023-04-08T11:38:12.164Z,23.90
2023-04-08T11:40:56.312Z,22.73
2023-04-08T11:43:23.499Z,21.50
2023-04-08T11:46:10.912Z,20.13
2023-04-08T11:48:43.081Z,25.30
2023-04-08T11:51:09.869Z,20.50
2023-04-08T11:53:39.428Z,25.57
2023-04-08T11:56:17.363Z,22.83
2023-04-08T11:58:44.215Z,24.30
2023-04-08T12:01:11.279Z,21.53
2023-04-08T12:03:42.679Z,24.10
2023-04-08T12:06:09.656Z,21.57
2023-04-08T12:08:36.609Z,24.10
2023-04-08T12:11:16.552Z,22.93
2023-04-08T12:13:46.135Z,24.90
2023-04-08T12:16:12.919Z,26.57
2023-04-08T12:18:45.119Z,24.63
2023-04-08T12:21:11.874Z,22.10
2023-04-08T12:23:41.807Z,24.73
2023-04-08T12:26:17.209Z,22.93
2023-04-08T12:28:43.925Z,22.60
2023-04-08T12:31:15.500Z,25.90
2023-04-08T12:33:47.663Z,25.47
2023-04-08T12:36:14.390Z,23.37
2023-04-08T12:38:43.782Z,23.53
2023-04-08T12:41:10.577Z,24.50
2023-04-08T12:43:37.696Z,23.67
2023-04-08T12:46:05.863Z,31.43
2023-04-08T12:48:37.190Z,23.73
2023-04-08T12:51:03.916Z,27.13
2023-04-08T12:53:30.564Z,22.33
2023-04-08T12:55:57.639Z,23.13
2023-04-08T12:58:25.397Z,24.93
2023-04-08T13:00:52.191Z,28.80
2023-04-08T13:03:19.104Z,24.17
2023-04-08T13:05:55.717Z,28.53
2023-04-08T13:08:23.275Z,28.97
2023-04-08T13:10:50.442Z,28.23
2023-04-08T13:13:24.703Z,25.57
2023-04-08T13:15:52.292Z,29.00
2023-04-08T13:18:18.974Z,24.20
2023-04-08T13:20:45.912Z,26.47
2023-04-08T13:23:14.529Z,27.80
2023-04-08T13:25:41.768Z,29.70
2023-04-08T13:28:08.737Z,25.23
2023-04-08T13:30:35.752Z,28.30
2023-04-08T13:33:02.447Z,28.67
2023-04-08T13:35:29.178Z,25.00
2023-04-08T13:37:56.096Z,22.30
2023-04-08T13:40:22.761Z,24.27
2023-04-08T13:42:49.403Z,26.37
2023-04-08T13:45:16.026Z,24.00
2023-04-08T13:47:45.008Z,23.43
2023-04-08T13:50:19.539Z,25.90
2023-04-08T13:52:46.600Z,29.83
2023-04-08T13:55:16.218Z,25.43
2023-04-08T13:57:52.138Z,24.10
2023-04-08T14:00:18.816Z,24.53
2023-04-08T14:02:47.276Z,23.57
2023-04-08T14:05:25.602Z,23.53
2023-04-08T14:07:52.341Z,24.33
2023-04-08T14:10:19.072Z,26.17
2023-04-08T14:12:51.000Z,25.07
2023-04-08T14:15:17.719Z,27.47
2023-04-08T14:17:47.559Z,24.97
2023-04-08T14:20:24.721Z,23.83
2023-04-08T14:22:51.362Z,27.77
2023-04-08T14:25:20.004Z,27.13
2023-04-08T14:27:57.962Z,22.50
2023-04-08T14:30:26.901Z,24.17
2023-04-08T14:32:54.486Z,24.87
2023-04-08T14:35:24.626Z,26.33
2023-04-08T14:37:51.284Z,24.87
2023-04-08T14:40:18.050Z,23.50
2023-04-08T14:42:45.575Z,28.30
2023-04-08T14:45:14.472Z,22.00
2023-04-08T14:47:46.751Z,26.33
2023-04-08T14:50:16.803Z,30.10
2023-04-08T14:52:45.314Z,22.17
2023-04-08T14:55:18.265Z,25.13
2023-04-08T14:57:48.024Z,22.50
2023-04-08T15:00:15.016Z,24.43
2023-04-08T15:02:47.977Z,27.50
2023-04-08T15:05:14.651Z,22.07
2023-04-08T15:07:41.957Z,24.90
2023-04-08T15:10:09.380Z,26.13
2023-04-08T15:12:36.454Z,23.30
2023-04-08T15:15:04.570Z,26.63
2023-04-08T15:17:31.354Z,24.90
2023-04-08T15:19:58.789Z,26.83
2023-04-08T15:22:34.334Z,22.20
2023-04-08T15:25:03.861Z,23.23
2023-04-08T15:27:31.339Z,25.90
2023-04-08T15:30:06.303Z,31.80
2023-04-08T15:32:33.138Z,29.07
2023-04-08T15:35:00.654Z,24.60
2023-04-08T15:37:38.037Z,30.97
2023-04-08T15:40:07.620Z,26.53
2023-04-08T15:42:35.653Z,26.70
2023-04-08T15:45:07.969Z,26.30
2023-04-08T15:47:35.305Z,28.63
2023-04-08T15:50:02.230Z,29.80
2023-04-08T15:52:29.168Z,26.10
2023-04-08T15:54:55.836Z,27.00
2023-04-08T15:57:26.734Z,26.63
2023-04-08T15:59:53.658Z,27.00
2023-04-08T16:02:23.163Z,27.50
2023-04-08T16:04:52.142Z,25.90
2023-04-08T16:07:19.109Z,29.13
2023-04-08T16:09:45.990Z,29.77
2023-04-08T16:12:14.765Z,27.90
2023-04-08T16:14:41.438Z,26.60
2023-04-08T16:17:10.680Z,26.80
2023-04-08T16:19:37.767Z,25.00
2023-04-08T16:22:04.517Z,24.27
2023-04-08T16:24:31.230Z,28.53
2023-04-08T16:26:57.878Z,29.20
2023-04-08T16:29:24.663Z,29.17
2023-04-08T16:31:53.415Z,32.67
2023-04-08T16:34:23.190Z,35.77
2023-04-08T16:36:49.988Z,27.70
2023-04-08T16:39:16.696Z,30.47
2023-04-08T16:41:43.650Z,34.37
2023-04-08T16:44:12.530Z,35.50
2023-04-08T16:46:39.280Z,32.87
2023-04-08T16:49:06.035Z,31.90
2023-04-08T16:51:32.654Z,39.00
2023-04-08T16:53:59.775Z,48.53
2023-04-08T16:56:27.174Z,45.17
2023-04-08T16:58:53.921Z,43.17
2023-04-08T17:01:20.967Z,41.17
2023-04-08T17:03:48.816Z,32.80
2023-04-08T17:06:15.762Z,30.70
2023-04-08T17:08:45.906Z,31.17
2023-04-08T17:11:14.544Z,27.97
2023-04-08T17:13:42.916Z,26.20
2023-04-08T17:16:17.157Z,25.57
2023-04-08T17:18:44.800Z,30.30
2023-04-08T17:21:12.466Z,28.23
2023-04-08T17:23:39.177Z,29.60
2023-04-08T17:26:11.920Z,29.20
2023-04-08T17:28:39.303Z,36.83
2023-04-08T17:31:06.345Z,44.97
2023-04-08T17:33:50.616Z,55.97
2023-04-08T17:36:17.991Z,48.50
2023-04-08T17:38:44.894Z,40.90
2023-04-08T17:41:13.390Z,46.20
2023-04-08T17:43:42.497Z,46.97
2023-04-08T17:46:09.255Z,44.13
2023-04-08T17:48:36.633Z,47.57
2023-04-08T17:51:05.683Z,43.33
2023-04-08T17:53:38.829Z,38.93
2023-04-08T17:56:09.197Z,37.43
2023-04-08T17:58:36.079Z,43.00
2023-04-08T18:01:05.555Z,51.20
2023-04-08T18:03:35.238Z,67.93
2023-04-08T18:06:04.084Z,62.57
2023-04-08T18:08:33.349Z,52.10
2023-04-08T18:11:00.048Z,60.77
2023-04-08T18:13:26.764Z,54.47
2023-04-08T18:15:53.580Z,45.87
2023-04-08T18:18:22.010Z,50.30
2023-04-08T18:20:52.418Z,41.47
2023-04-08T18:23:19.270Z,45.57
2023-04-08T18:25:46.768Z,49.50
2023-04-08T18:28:13.673Z,55.33
2023-04-08T18:30:40.732Z,54.90
2023-04-08T18:33:07.684Z,54.73
2023-04-08T18:35:34.575Z,53.70
2023-04-08T18:38:01.282Z,51.97
2023-04-08T18:40:28.084Z,53.43
2023-04-08T18:42:54.810Z,48.27
2023-04-08T18:45:21.557Z,54.80
2023-04-08T18:47:48.323Z,49.53
2023-04-08T18:50:15.088Z,51.83
2023-04-08T18:52:41.952Z,48.87
2023-04-08T18:55:08.960Z,46.00
2023-04-08T18:57:35.860Z,47.73
2023-04-08T19:00:02.609Z,44.47
2023-04-08T19:02:29.408Z,43.13
2023-04-08T19:04:56.389Z,46.10
2023-04-08T19:07:23.404Z,43.40
2023-04-08T19:09:50.034Z,45.50
2023-04-08T19:12:16.784Z,42.50
2023-04-08T19:14:43.517Z,45.50
2023-04-08T19:17:11.079Z,46.13
2023-04-08T19:19:38.903Z,47.70
2023-04-08T19:22:06.109Z,42.80
2023-04-08T19:24:33.316Z,44.97
2023-04-08T19:27:00.538Z,45.43
2023-04-08T19:29:29.745Z,44.23
2023-04-08T19:31:57.413Z,42.40
2023-04-08T19:34:24.157Z,45.07
2023-04-08T19:36:50.892Z,43.20
2023-04-08T19:39:18.535Z,46.53
2023-04-08T19:41:45.667Z,46.93
2023-04-08T19:44:14.570Z,49.43
2023-04-08T19:46:41.328Z,47.80
2023-04-08T19:49:08.074Z,49.73
2023-04-08T19:51:34.770Z,44.00
2023-04-08T19:54:01.540Z,48.57
2023-04-08T19:56:32.482Z,45.10
2023-04-08T19:58:59.775Z,45.73
2023-04-08T20:01:26.602Z,49.57
2023-04-08T20:03:53.463Z,51.27
2023-04-08T20:06:20.720Z,50.60
2023-04-08T20:08:49.203Z,46.23
2023-04-08T20:11:16.120Z,51.23
2023-04-08T20:13:43.156Z,50.27
2023-04-08T20:16:09.837Z,49.73
2023-04-08T20:18:36.575Z,44.40
2023-04-08T20:21:03.513Z,50.53
2023-04-08T20:23:33.425Z,48.47
2023-04-08T20:26:00.142Z,51.40
2023-04-08T20:28:27.184Z,46.90
2023-04-08T20:30:54.171Z,47.23
2023-04-08T20:33:21.087Z,42.50
2023-04-08T20:35:50.553Z,40.33
2023-04-08T20:38:17.640Z,44.17
2023-04-08T20:40:44.829Z,44.60
2023-04-08T20:43:11.736Z,41.80
2023-04-08T20:45:38.333Z,43.53
2023-04-08T20:48:05.829Z,43.60
2023-04-08T20:50:32.884Z,42.13
2023-04-08T20:52:59.813Z,44.20
2023-04-08T20:55:26.477Z,45.67
2023-04-08T20:57:53.160Z,49.67
2023-04-08T21:00:19.959Z,44.17
2023-04-08T21:02:47.987Z,43.53
2023-04-08T21:05:14.998Z,44.67
2023-04-08T21:07:44.486Z,47.30
2023-04-08T21:10:12.650Z,47.23
2023-04-08T21:12:39.328Z,44.30
2023-04-08T21:15:06.242Z,43.97
2023-04-08T21:17:32.965Z,44.17
2023-04-08T21:19:59.652Z,47.57
2023-04-08T21:22:26.356Z,39.93
2023-04-08T21:24:53.003Z,47.20
2023-04-08T21:27:19.649Z,41.30
2023-04-08T21:29:46.265Z,44.13
2023-04-08T21:32:14.920Z,38.90
2023-04-08T21:34:41.932Z,39.77
2023-04-08T21:37:08.598Z,42.00
2023-04-08T21:39:35.337Z,35.90
2023-04-08T21:42:02.028Z,41.60
2023-04-08T21:44:31.472Z,39.50
2023-04-08T21:47:00.406Z,40.60
2023-04-08T21:49:29.813Z,38.53
2023-04-08T21:51:56.596Z,38.40
2023-04-08T21:54:23.433Z,37.80
2023-04-08T21:56:50.222Z,42.17
2023-04-08T21:59:16.854Z,38.77
2023-04-08T22:01:43.580Z,43.40
2023-04-08T22:04:10.346Z,40.33
2023-04-08T22:06:37.040Z,41.60
2023-04-08T22:09:03.935Z,40.30
2023-04-08T22:11:30.866Z,43.83
2023-04-08T22:13:57.627Z,42.20
2023-04-08T22:16:24.493Z,41.70
2023-04-08T22:18:51.471Z,40.67
2023-04-08T22:21:18.514Z,46.67
2023-04-08T22:23:46.090Z,51.47
2023-04-08T22:26:13.513Z,51.40
2023-04-08T22:28:41.997Z,58.53
2023-04-08T22:31:11.001Z,59.03
2023-04-08T22:33:41.560Z,62.90
2023-04-08T22:36:08.259Z,70.30
2023-04-08T22:38:35.596Z,73.43
2023-04-08T22:41:02.303Z,70.43
2023-04-08T22:43:28.935Z,60.30
2023-04-08T22:45:55.779Z,62.30
2023-04-08T22:48:22.413Z,63.40
2023-04-08T22:50:49.028Z,66.60
2023-04-08T22:53:15.791Z,64.90
2023-04-08T22:55:42.427Z,54.10
2023-04-08T22:58:09.053Z,53.50
2023-04-08T23:00:35.709Z,53.83
2023-04-08T23:03:04.781Z,58.53
2023-04-08T23:05:31.734Z,55.70
2023-04-08T23:07:58.477Z,57.23
2023-04-08T23:10:25.295Z,54.17
2023-04-08T23:12:51.927Z,54.20
2023-04-08T23:15:18.670Z,55.80
2023-04-08T23:17:45.359Z,55.87
2023-04-08T23:20:12.408Z,60.07
2023-04-08T23:22:39.026Z,54.97
2023-04-08T23:25:06.423Z,60.60
2023-04-08T23:27:33.104Z,59.57
2023-04-08T23:30:05.437Z,65.87
2023-04-08T23:32:35.720Z,57.73
2023-04-08T23:35:02.860Z,56.50
2023-04-08T23:37:29.610Z,62.10
2023-04-08T23:39:56.355Z,58.43
2023-04-08T23:42:27.208Z,58.60
2023-04-08T23:44:54.767Z,56.70
2023-04-08T23:47:21.721Z,50.73
2023-04-08T23:49:49.146Z,53.20
2023-04-08T23:52:15.867Z,58.50
2023-04-08T23:54:42.601Z,57.90
2023-04-08T23:57:09.196Z,56.67
2023-04-08T23:59:35.898Z,55.40
